sensor_id;sensor_type;location;lat;lon;timestamp;P1;durP1;ratioP1;P2;durP2;ratioP2
75645;SDS011;64237;52.438;13.240;2023-06-14T00:00:14;4.72;;;1.70;;
75645;SDS011;64237;52.438;13.240;2023-06-14T00:02:40;3.22;;;1.73;;
75645;SDS011;64237;52.438;13.240;2023-06-14T00:05:06;3.65;;;1.35;;
75645;SDS011;64237;52.438;13.240;2023-06-14T00:07:36;7.00;;;1.70;;
75645;SDS011;64237;52.438;13.240;2023-06-14T00:10:03;2.92;;;1.50;;
75645;SDS011;64237;52.438;13.240;2023-06-14T00:12:29;3.20;;;1.60;;
75645;SDS011;64237;52.438;13.240;2023-06-14T00:14:55;4.10;;;1.95;;
75645;SDS011;64237;52.438;13.240;2023-06-14T00:17:21;5.30;;;1.73;;
75645;SDS011;64237;52.438;13.240;2023-06-14T00:19:46;3.45;;;1.75;;
75645;SDS011;64237;52.438;13.240;2023-06-14T00:22:12;3.72;;;1.73;;
75645;SDS011;64237;52.438;13.240;2023-06-14T00:24:37;5.35;;;1.70;;
75645;SDS011;64237;52.438;13.240;2023-06-14T00:27:02;3.63;;;1.50;;
75645;SDS011;64237;52.438;13.240;2023-06-14T00:29:28;4.25;;;1.60;;
75645;SDS011;64237;52.438;13.240;2023-06-14T00:31:53;4.90;;;1.80;;
75645;SDS011;64237;52.438;13.240;2023-06-14T00:34:19;5.90;;;1.67;;
75645;SDS011;64237;52.438;13.240;2023-06-14T00:36:44;3.70;;;1.55;;
75645;SDS011;64237;52.438;13.240;2023-06-14T00:39:09;6.40;;;1.90;;
75645;SDS011;64237;52.438;13.240;2023-06-14T00:41:34;3.90;;;1.80;;
75645;SDS011;64237;52.438;13.240;2023-06-14T00:44:00;2.95;;;1.55;;
75645;SDS011;64237;52.438;13.240;2023-06-14T00:46:25;3.70;;;1.52;;
75645;SDS011;64237;52.438;13.240;2023-06-14T00:48:51;6.35;;;1.50;;
75645;SDS011;64237;52.438;13.240;2023-06-14T00:51:17;3.08;;;1.50;;
75645;SDS011;64237;52.438;13.240;2023-06-14T00:53:42;3.50;;;1.30;;
75645;SDS011;64237;52.438;13.240;2023-06-14T00:56:11;4.13;;;1.58;;
75645;SDS011;64237;52.438;13.240;2023-06-14T00:58:38;4.80;;;1.80;;
75645;SDS011;64237;52.438;13.240;2023-06-14T01:01:04;4.72;;;1.52;;
75645;SDS011;64237;52.438;13.240;2023-06-14T01:03:29;3.88;;;1.88;;
75645;SDS011;64237;52.438;13.240;2023-06-14T01:06:07;6.15;;;1.67;;
75645;SDS011;64237;52.438;13.240;2023-06-14T01:12:00;3.60;;;1.70;;
75645;SDS011;64237;52.438;13.240;2023-06-14T01:14:32;6.25;;;1.95;;
75645;SDS011;64237;52.438;13.240;2023-06-14T01:16:59;6.15;;;2.08;;
75645;SDS011;64237;52.438;13.240;2023-06-14T01:19:27;6.45;;;1.90;;
75645;SDS011;64237;52.438;13.240;2023-06-14T01:21:53;5.22;;;2.00;;
75645;SDS011;64237;52.438;13.240;2023-06-14T01:24:20;3.72;;;2.13;;
75645;SDS011;64237;52.438;13.240;2023-06-14T01:26:51;5.38;;;2.30;;
75645;SDS011;64237;52.438;13.240;2023-06-14T01:29:21;4.38;;;1.90;;
75645;SDS011;64237;52.438;13.240;2023-06-14T01:34:15;10.48;;;2.42;;
75645;SDS011;64237;52.438;13.240;2023-06-14T01:36:41;5.95;;;2.22;;
75645;SDS011;64237;52.438;13.240;2023-06-14T01:39:10;4.50;;;2.03;;
75645;SDS011;64237;52.438;13.240;2023-06-14T01:41:38;5.60;;;2.17;;
75645;SDS011;64237;52.438;13.240;2023-06-14T01:44:05;6.88;;;2.28;;
75645;SDS011;64237;52.438;13.240;2023-06-14T01:46:31;6.28;;;2.30;;
75645;SDS011;64237;52.438;13.240;2023-06-14T01:48:57;4.40;;;2.10;;
75645;SDS011;64237;52.438;13.240;2023-06-14T01:51:22;6.65;;;2.42;;
75645;SDS011;64237;52.438;13.240;2023-06-14T01:53:48;5.15;;;2.22;;
75645;SDS011;64237;52.438;13.240;2023-06-14T01:56:13;6.53;;;2.63;;
75645;SDS011;64237;52.438;13.240;2023-06-14T01:58:38;5.35;;;2.53;;
75645;SDS011;64237;52.438;13.240;2023-06-14T02:01:04;6.07;;;2.40;;
75645;SDS011;64237;52.438;13.240;2023-06-14T02:03:30;6.97;;;2.28;;
75645;SDS011;64237;52.438;13.240;2023-06-14T02:05:55;5.53;;;2.17;;
75645;SDS011;64237;52.438;13.240;2023-06-14T02:08:21;5.05;;;2.42;;
75645;SDS011;64237;52.438;13.240;2023-06-14T02:10:47;7.30;;;2.65;;
75645;SDS011;64237;52.438;13.240;2023-06-14T02:13:12;5.37;;;2.53;;
75645;SDS011;64237;52.438;13.240;2023-06-14T02:15:38;5.77;;;2.47;;
75645;SDS011;64237;52.438;13.240;2023-06-14T02:18:03;6.10;;;2.27;;
75645;SDS011;64237;52.438;13.240;2023-06-14T02:20:29;6.60;;;2.67;;
75645;SDS011;64237;52.438;13.240;2023-06-14T02:22:56;6.22;;;2.70;;
75645;SDS011;64237;52.438;13.240;2023-06-14T02:25:21;6.20;;;2.47;;
75645;SDS011;64237;52.438;13.240;2023-06-14T02:27:47;5.95;;;2.55;;
75645;SDS011;64237;52.438;13.240;2023-06-14T02:30:12;7.40;;;2.72;;
75645;SDS011;64237;52.438;13.240;2023-06-14T02:32:38;5.40;;;2.42;;
75645;SDS011;64237;52.438;13.240;2023-06-14T02:35:05;7.15;;;2.75;;
75645;SDS011;64237;52.438;13.240;2023-06-14T02:37:31;5.00;;;2.40;;
75645;SDS011;64237;52.438;13.240;2023-06-14T02:39:57;5.88;;;2.80;;
75645;SDS011;64237;52.438;13.240;2023-06-14T02:42:22;6.80;;;2.65;;
75645;SDS011;64237;52.438;13.240;2023-06-14T02:44:47;8.10;;;2.83;;
75645;SDS011;64237;52.438;13.240;2023-06-14T02:47:16;6.43;;;2.80;;
75645;SDS011;64237;52.438;13.240;2023-06-14T02:49:42;6.80;;;2.58;;
75645;SDS011;64237;52.438;13.240;2023-06-14T02:52:08;5.90;;;2.72;;
75645;SDS011;64237;52.438;13.240;2023-06-14T02:54:34;11.40;;;2.90;;
75645;SDS011;64237;52.438;13.240;2023-06-14T02:56:59;10.48;;;2.92;;
75645;SDS011;64237;52.438;13.240;2023-06-14T02:59:25;7.18;;;2.97;;
75645;SDS011;64237;52.438;13.240;2023-06-14T03:01:51;6.32;;;2.85;;
75645;SDS011;64237;52.438;13.240;2023-06-14T03:04:16;6.88;;;2.65;;
75645;SDS011;64237;52.438;13.240;2023-06-14T03:06:42;5.32;;;2.60;;
75645;SDS011;64237;52.438;13.240;2023-06-14T03:09:09;6.43;;;2.90;;
75645;SDS011;64237;52.438;13.240;2023-06-14T03:11:34;6.18;;;3.00;;
75645;SDS011;64237;52.438;13.240;2023-06-14T03:14:00;7.28;;;2.85;;
75645;SDS011;64237;52.438;13.240;2023-06-14T03:16:26;6.80;;;2.92;;
75645;SDS011;64237;52.438;13.240;2023-06-14T03:18:53;7.22;;;2.75;;
75645;SDS011;64237;52.438;13.240;2023-06-14T03:21:19;7.22;;;2.80;;
75645;SDS011;64237;52.438;13.240;2023-06-14T03:23:48;6.55;;;2.95;;
75645;SDS011;64237;52.438;13.240;2023-06-14T03:26:14;9.55;;;3.47;;
75645;SDS011;64237;52.438;13.240;2023-06-14T03:28:42;7.15;;;3.22;;
75645;SDS011;64237;52.438;13.240;2023-06-14T03:31:08;8.07;;;3.08;;
75645;SDS011;64237;52.438;13.240;2023-06-14T03:33:34;7.10;;;3.20;;
75645;SDS011;64237;52.438;13.240;2023-06-14T03:35:59;6.88;;;3.00;;
75645;SDS011;64237;52.438;13.240;2023-06-14T03:38:26;6.72;;;3.28;;
75645;SDS011;64237;52.438;13.240;2023-06-14T03:40:51;7.47;;;3.00;;
75645;SDS011;64237;52.438;13.240;2023-06-14T03:43:17;8.20;;;3.07;;
75645;SDS011;64237;52.438;13.240;2023-06-14T03:45:42;7.73;;;3.20;;
75645;SDS011;64237;52.438;13.240;2023-06-14T03:48:08;7.45;;;2.85;;
75645;SDS011;64237;52.438;13.240;2023-06-14T03:50:34;7.40;;;3.72;;
75645;SDS011;64237;52.438;13.240;2023-06-14T03:52:59;7.13;;;2.88;;
75645;SDS011;64237;52.438;13.240;2023-06-14T03:55:26;6.95;;;2.80;;
75645;SDS011;64237;52.438;13.240;2023-06-14T03:57:52;6.80;;;3.38;;
75645;SDS011;64237;52.438;13.240;2023-06-14T04:00:18;7.25;;;3.25;;
75645;SDS011;64237;52.438;13.240;2023-06-14T04:02:43;10.18;;;3.10;;
75645;SDS011;64237;52.438;13.240;2023-06-14T04:05:09;8.32;;;3.30;;
75645;SDS011;64237;52.438;13.240;2023-06-14T04:07:35;8.02;;;2.90;;
75645;SDS011;64237;52.438;13.240;2023-06-14T04:10:10;7.35;;;3.28;;
75645;SDS011;64237;52.438;13.240;2023-06-14T04:12:39;6.05;;;3.15;;
75645;SDS011;64237;52.438;13.240;2023-06-14T04:15:04;7.80;;;3.47;;
75645;SDS011;64237;52.438;13.240;2023-06-14T04:17:37;6.95;;;3.08;;
75645;SDS011;64237;52.438;13.240;2023-06-14T04:20:03;6.45;;;3.00;;
75645;SDS011;64237;52.438;13.240;2023-06-14T04:22:30;6.43;;;3.17;;
75645;SDS011;64237;52.438;13.240;2023-06-14T04:24:56;8.13;;;3.45;;
75645;SDS011;64237;52.438;13.240;2023-06-14T04:27:25;7.75;;;3.08;;
75645;SDS011;64237;52.438;13.240;2023-06-14T04:29:51;7.13;;;3.13;;
75645;SDS011;64237;52.438;13.240;2023-06-14T04:32:24;7.97;;;3.47;;
75645;SDS011;64237;52.438;13.240;2023-06-14T04:34:52;8.52;;;3.13;;
75645;SDS011;64237;52.438;13.240;2023-06-14T04:37:19;6.90;;;2.95;;
75645;SDS011;64237;52.438;13.240;2023-06-14T04:39:46;6.72;;;2.58;;
75645;SDS011;64237;52.438;13.240;2023-06-14T04:42:12;7.70;;;3.15;;
75645;SDS011;64237;52.438;13.240;2023-06-14T04:44:38;7.45;;;3.40;;
75645;SDS011;64237;52.438;13.240;2023-06-14T04:47:04;8.23;;;3.55;;
75645;SDS011;64237;52.438;13.240;2023-06-14T04:49:31;8.10;;;3.72;;
75645;SDS011;64237;52.438;13.240;2023-06-14T04:51:59;6.68;;;3.45;;
75645;SDS011;64237;52.438;13.240;2023-06-14T04:54:26;6.82;;;3.80;;
75645;SDS011;64237;52.438;13.240;2023-06-14T04:56:52;6.50;;;3.20;;
75645;SDS011;64237;52.438;13.240;2023-06-14T04:59:18;7.22;;;3.50;;
75645;SDS011;64237;52.438;13.240;2023-06-14T05:01:44;7.18;;;3.20;;
75645;SDS011;64237;52.438;13.240;2023-06-14T05:04:13;6.45;;;3.35;;
75645;SDS011;64237;52.438;13.240;2023-06-14T05:06:40;7.88;;;3.38;;
75645;SDS011;64237;52.438;13.240;2023-06-14T05:09:06;7.35;;;3.63;;
75645;SDS011;64237;52.438;13.240;2023-06-14T05:11:32;6.57;;;3.50;;
75645;SDS011;64237;52.438;13.240;2023-06-14T05:13:57;7.57;;;3.13;;
75645;SDS011;64237;52.438;13.240;2023-06-14T05:16:23;6.50;;;3.20;;
75645;SDS011;64237;52.438;13.240;2023-06-14T05:18:50;7.18;;;3.42;;
75645;SDS011;64237;52.438;13.240;2023-06-14T05:21:16;5.93;;;3.17;;
75645;SDS011;64237;52.438;13.240;2023-06-14T05:23:43;6.88;;;3.30;;
75645;SDS011;64237;52.438;13.240;2023-06-14T05:26:10;6.20;;;3.33;;
75645;SDS011;64237;52.438;13.240;2023-06-14T05:28:35;8.32;;;3.25;;
75645;SDS011;64237;52.438;13.240;2023-06-14T05:31:01;7.60;;;3.08;;
75645;SDS011;64237;52.438;13.240;2023-06-14T05:33:29;7.55;;;2.88;;
75645;SDS011;64237;52.438;13.240;2023-06-14T05:35:54;5.70;;;2.75;;
75645;SDS011;64237;52.438;13.240;2023-06-14T05:38:20;5.53;;;2.75;;
75645;SDS011;64237;52.438;13.240;2023-06-14T05:40:46;6.93;;;2.90;;
75645;SDS011;64237;52.438;13.240;2023-06-14T05:43:11;7.22;;;2.88;;
75645;SDS011;64237;52.438;13.240;2023-06-14T05:45:36;7.80;;;2.75;;
75645;SDS011;64237;52.438;13.240;2023-06-14T05:48:02;9.77;;;2.58;;
75645;SDS011;64237;52.438;13.240;2023-06-14T05:50:27;5.43;;;2.50;;
75645;SDS011;64237;52.438;13.240;2023-06-14T05:52:53;9.03;;;2.57;;
75645;SDS011;64237;52.438;13.240;2023-06-14T05:55:18;6.85;;;2.70;;
75645;SDS011;64237;52.438;13.240;2023-06-14T05:57:44;6.78;;;2.90;;
75645;SDS011;64237;52.438;13.240;2023-06-14T06:00:10;6.70;;;2.70;;
75645;SDS011;64237;52.438;13.240;2023-06-14T06:05:04;6.97;;;2.60;;
75645;SDS011;64237;52.438;13.240;2023-06-14T06:07:31;5.57;;;2.72;;
75645;SDS011;64237;52.438;13.240;2023-06-14T06:09:56;5.25;;;2.70;;
75645;SDS011;64237;52.438;13.240;2023-06-14T06:12:21;6.55;;;3.10;;
75645;SDS011;64237;52.438;13.240;2023-06-14T06:14:47;8.27;;;2.90;;
75645;SDS011;64237;52.438;13.240;2023-06-14T06:17:12;11.50;;;3.42;;
75645;SDS011;64237;52.438;13.240;2023-06-14T06:19:38;10.38;;;3.53;;
75645;SDS011;64237;52.438;13.240;2023-06-14T06:22:03;7.15;;;2.75;;
75645;SDS011;64237;52.438;13.240;2023-06-14T06:24:32;8.30;;;3.20;;
75645;SDS011;64237;52.438;13.240;2023-06-14T06:26:57;7.93;;;3.50;;
75645;SDS011;64237;52.438;13.240;2023-06-14T06:29:23;6.93;;;2.80;;
75645;SDS011;64237;52.438;13.240;2023-06-14T06:31:48;6.90;;;2.92;;
75645;SDS011;64237;52.438;13.240;2023-06-14T06:34:14;7.30;;;2.90;;
75645;SDS011;64237;52.438;13.240;2023-06-14T06:36:39;7.45;;;3.50;;
75645;SDS011;64237;52.438;13.240;2023-06-14T06:39:05;9.20;;;3.15;;
75645;SDS011;64237;52.438;13.240;2023-06-14T06:41:38;7.80;;;3.47;;
75645;SDS011;64237;52.438;13.240;2023-06-14T06:44:05;9.27;;;3.75;;
75645;SDS011;64237;52.438;13.240;2023-06-14T06:46:31;8.88;;;3.88;;
75645;SDS011;64237;52.438;13.240;2023-06-14T06:48:57;9.25;;;4.03;;
75645;SDS011;64237;52.438;13.240;2023-06-14T06:51:23;8.52;;;3.78;;
75645;SDS011;64237;52.438;13.240;2023-06-14T06:53:52;8.50;;;3.80;;
75645;SDS011;64237;52.438;13.240;2023-06-14T06:56:19;7.60;;;3.38;;
75645;SDS011;64237;52.438;13.240;2023-06-14T06:58:44;11.00;;;3.53;;
75645;SDS011;64237;52.438;13.240;2023-06-14T07:01:10;7.07;;;3.53;;
75645;SDS011;64237;52.438;13.240;2023-06-14T07:03:36;7.65;;;3.78;;
75645;SDS011;64237;52.438;13.240;2023-06-14T07:06:02;7.70;;;3.35;;
75645;SDS011;64237;52.438;13.240;2023-06-14T07:08:27;8.75;;;3.88;;
75645;SDS011;64237;52.438;13.240;2023-06-14T07:10:52;9.23;;;3.90;;
75645;SDS011;64237;52.438;13.240;2023-06-14T07:13:18;10.77;;;3.90;;
75645;SDS011;64237;52.438;13.240;2023-06-14T07:15:44;7.53;;;3.85;;
75645;SDS011;64237;52.438;13.240;2023-06-14T07:18:09;9.52;;;3.55;;
75645;SDS011;64237;52.438;13.240;2023-06-14T07:20:35;6.30;;;3.28;;
75645;SDS011;64237;52.438;13.240;2023-06-14T07:23:03;9.75;;;3.35;;
75645;SDS011;64237;52.438;13.240;2023-06-14T07:25:28;9.80;;;3.33;;
75645;SDS011;64237;52.438;13.240;2023-06-14T07:27:54;8.95;;;3.70;;
75645;SDS011;64237;52.438;13.240;2023-06-14T07:30:20;7.40;;;3.80;;
75645;SDS011;64237;52.438;13.240;2023-06-14T07:32:45;9.30;;;3.58;;
75645;SDS011;64237;52.438;13.240;2023-06-14T07:35:11;9.85;;;3.85;;
75645;SDS011;64237;52.438;13.240;2023-06-14T07:37:36;7.03;;;3.60;;
75645;SDS011;64237;52.438;13.240;2023-06-14T07:40:02;8.43;;;3.78;;
75645;SDS011;64237;52.438;13.240;2023-06-14T07:42:32;9.05;;;3.63;;
75645;SDS011;64237;52.438;13.240;2023-06-14T07:44:59;9.13;;;3.30;;
75645;SDS011;64237;52.438;13.240;2023-06-14T07:47:24;8.15;;;3.67;;
75645;SDS011;64237;52.438;13.240;2023-06-14T07:49:50;7.13;;;3.38;;
75645;SDS011;64237;52.438;13.240;2023-06-14T07:52:15;7.97;;;3.60;;
75645;SDS011;64237;52.438;13.240;2023-06-14T07:54:41;7.88;;;3.30;;
75645;SDS011;64237;52.438;13.240;2023-06-14T07:57:06;9.35;;;3.40;;
75645;SDS011;64237;52.438;13.240;2023-06-14T07:59:32;8.50;;;3.47;;
75645;SDS011;64237;52.438;13.240;2023-06-14T08:01:58;14.70;;;3.42;;
75645;SDS011;64237;52.438;13.240;2023-06-14T08:04:23;8.23;;;3.05;;
75645;SDS011;64237;52.438;13.240;2023-06-14T08:06:50;7.43;;;3.25;;
75645;SDS011;64237;52.438;13.240;2023-06-14T08:09:15;6.93;;;3.00;;
75645;SDS011;64237;52.438;13.240;2023-06-14T08:11:41;10.38;;;4.60;;
75645;SDS011;64237;52.438;13.240;2023-06-14T08:14:06;5.65;;;2.33;;
75645;SDS011;64237;52.438;13.240;2023-06-14T08:16:32;7.53;;;2.30;;
75645;SDS011;64237;52.438;13.240;2023-06-14T08:18:57;7.03;;;2.47;;
75645;SDS011;64237;52.438;13.240;2023-06-14T08:21:22;8.32;;;2.75;;
75645;SDS011;64237;52.438;13.240;2023-06-14T08:23:48;5.88;;;2.58;;
75645;SDS011;64237;52.438;13.240;2023-06-14T08:26:14;5.85;;;2.80;;
75645;SDS011;64237;52.438;13.240;2023-06-14T08:28:39;10.27;;;2.47;;
75645;SDS011;64237;52.438;13.240;2023-06-14T08:31:05;9.00;;;2.90;;
75645;SDS011;64237;52.438;13.240;2023-06-14T08:33:30;7.40;;;2.75;;
75645;SDS011;64237;52.438;13.240;2023-06-14T08:35:58;6.03;;;2.58;;
75645;SDS011;64237;52.438;13.240;2023-06-14T08:38:23;8.32;;;2.83;;
75645;SDS011;64237;52.438;13.240;2023-06-14T08:40:50;5.50;;;2.50;;
75645;SDS011;64237;52.438;13.240;2023-06-14T08:43:16;6.82;;;2.65;;
75645;SDS011;64237;52.438;13.240;2023-06-14T08:45:41;6.07;;;2.55;;
75645;SDS011;64237;52.438;13.240;2023-06-14T08:48:07;6.35;;;2.95;;
75645;SDS011;64237;52.438;13.240;2023-06-14T08:50:33;6.35;;;2.50;;
75645;SDS011;64237;52.438;13.240;2023-06-14T08:53:01;7.15;;;2.40;;
75645;SDS011;64237;52.438;13.240;2023-06-14T08:55:28;9.60;;;2.25;;
75645;SDS011;64237;52.438;13.240;2023-06-14T09:00:25;6.20;;;2.60;;
75645;SDS011;64237;52.438;13.240;2023-06-14T09:02:52;6.75;;;2.20;;
75645;SDS011;64237;52.438;13.240;2023-06-14T09:05:22;10.35;;;2.70;;
75645;SDS011;64237;52.438;13.240;2023-06-14T09:07:48;5.38;;;2.17;;
75645;SDS011;64237;52.438;13.240;2023-06-14T09:10:15;7.47;;;2.30;;
75645;SDS011;64237;52.438;13.240;2023-06-14T09:12:41;6.60;;;2.60;;
75645;SDS011;64237;52.438;13.240;2023-06-14T09:15:07;5.85;;;2.33;;
75645;SDS011;64237;52.438;13.240;2023-06-14T09:17:34;7.20;;;2.28;;
75645;SDS011;64237;52.438;13.240;2023-06-14T09:20:04;6.32;;;2.35;;
75645;SDS011;64237;52.438;13.240;2023-06-14T09:22:33;5.70;;;2.17;;
75645;SDS011;64237;52.438;13.240;2023-06-14T09:24:59;6.07;;;1.90;;
75645;SDS011;64237;52.438;13.240;2023-06-14T09:27:30;9.60;;;2.33;;
75645;SDS011;64237;52.438;13.240;2023-06-14T09:29:57;8.20;;;2.33;;
75645;SDS011;64237;52.438;13.240;2023-06-14T09:32:22;5.47;;;2.28;;
75645;SDS011;64237;52.438;13.240;2023-06-14T09:34:48;7.20;;;2.53;;
75645;SDS011;64237;52.438;13.240;2023-06-14T09:37:25;10.35;;;2.30;;
75645;SDS011;64237;52.438;13.240;2023-06-14T09:39:53;9.70;;;2.83;;
75645;SDS011;64237;52.438;13.240;2023-06-14T09:42:18;13.68;;;2.72;;
75645;SDS011;64237;52.438;13.240;2023-06-14T09:44:47;9.20;;;2.60;;
75645;SDS011;64237;52.438;13.240;2023-06-14T09:47:14;9.13;;;2.63;;
75645;SDS011;64237;52.438;13.240;2023-06-14T09:49:40;7.55;;;2.35;;
75645;SDS011;64237;52.438;13.240;2023-06-14T09:52:05;10.98;;;2.80;;
75645;SDS011;64237;52.438;13.240;2023-06-14T09:54:33;7.55;;;2.38;;
75645;SDS011;64237;52.438;13.240;2023-06-14T09:57:04;7.10;;;2.63;;
75645;SDS011;64237;52.438;13.240;2023-06-14T09:59:32;4.63;;;2.42;;
75645;SDS011;64237;52.438;13.240;2023-06-14T10:01:58;5.95;;;2.40;;
75645;SDS011;64237;52.438;13.240;2023-06-14T10:04:25;6.78;;;2.45;;
75645;SDS011;64237;52.438;13.240;2023-06-14T10:06:54;4.68;;;2.33;;
75645;SDS011;64237;52.438;13.240;2023-06-14T10:09:20;6.90;;;2.58;;
75645;SDS011;64237;52.438;13.240;2023-06-14T10:11:47;7.35;;;2.38;;
75645;SDS011;64237;52.438;13.240;2023-06-14T10:14:12;8.05;;;2.20;;
75645;SDS011;64237;52.438;13.240;2023-06-14T10:16:44;6.85;;;2.20;;
75645;SDS011;64237;52.438;13.240;2023-06-14T10:22:14;7.05;;;2.42;;
75645;SDS011;64237;52.438;13.240;2023-06-14T10:24:44;7.43;;;2.47;;
75645;SDS011;64237;52.438;13.240;2023-06-14T10:27:13;8.40;;;2.67;;
75645;SDS011;64237;52.438;13.240;2023-06-14T10:32:20;10.15;;;2.17;;
75645;SDS011;64237;52.438;13.240;2023-06-14T10:34:49;3.85;;;2.10;;
75645;SDS011;64237;52.438;13.240;2023-06-14T10:37:19;6.95;;;2.33;;
75645;SDS011;64237;52.438;13.240;2023-06-14T10:39:45;7.30;;;2.60;;
75645;SDS011;64237;52.438;13.240;2023-06-14T10:42:11;6.63;;;2.60;;
75645;SDS011;64237;52.438;13.240;2023-06-14T10:47:13;6.70;;;2.50;;
75645;SDS011;64237;52.438;13.240;2023-06-14T10:49:47;9.45;;;2.35;;
75645;SDS011;64237;52.438;13.240;2023-06-14T10:52:16;10.05;;;2.38;;
75645;SDS011;64237;52.438;13.240;2023-06-14T10:55:00;10.65;;;2.80;;
75645;SDS011;64237;52.438;13.240;2023-06-14T10:57:40;6.93;;;2.50;;
75645;SDS011;64237;52.438;13.240;2023-06-14T11:00:07;6.72;;;2.40;;
75645;SDS011;64237;52.438;13.240;2023-06-14T11:05:25;8.20;;;3.03;;
75645;SDS011;64237;52.438;13.240;2023-06-14T11:10:43;4.57;;;2.30;;
75645;SDS011;64237;52.438;13.240;2023-06-14T11:13:10;9.32;;;2.40;;
75645;SDS011;64237;52.438;13.240;2023-06-14T11:15:36;5.75;;;2.40;;
75645;SDS011;64237;52.438;13.240;2023-06-14T11:18:04;6.22;;;2.55;;
75645;SDS011;64237;52.438;13.240;2023-06-14T11:20:31;5.80;;;2.30;;
75645;SDS011;64237;52.438;13.240;2023-06-14T11:22:59;5.20;;;2.35;;
75645;SDS011;64237;52.438;13.240;2023-06-14T11:25:25;4.80;;;2.25;;
75645;SDS011;64237;52.438;13.240;2023-06-14T11:27:53;6.18;;;2.35;;
75645;SDS011;64237;52.438;13.240;2023-06-14T11:30:18;7.03;;;2.25;;
75645;SDS011;64237;52.438;13.240;2023-06-14T11:32:50;11.27;;;2.33;;
75645;SDS011;64237;52.438;13.240;2023-06-14T11:35:18;8.82;;;2.78;;
75645;SDS011;64237;52.438;13.240;2023-06-14T11:37:44;5.90;;;2.38;;
75645;SDS011;64237;52.438;13.240;2023-06-14T11:40:10;7.03;;;2.25;;
75645;SDS011;64237;52.438;13.240;2023-06-14T11:42:38;4.85;;;2.33;;
75645;SDS011;64237;52.438;13.240;2023-06-14T11:45:08;8.85;;;2.30;;
75645;SDS011;64237;52.438;13.240;2023-06-14T11:47:34;7.18;;;2.60;;
75645;SDS011;64237;52.438;13.240;2023-06-14T11:50:01;8.38;;;2.30;;
75645;SDS011;64237;52.438;13.240;2023-06-14T11:52:28;6.07;;;2.40;;
75645;SDS011;64237;52.438;13.240;2023-06-14T11:54:53;6.10;;;2.40;;
75645;SDS011;64237;52.438;13.240;2023-06-14T11:57:20;4.80;;;2.33;;
75645;SDS011;64237;52.438;13.240;2023-06-14T11:59:45;8.02;;;2.40;;
75645;SDS011;64237;52.438;13.240;2023-06-14T12:02:18;6.60;;;2.50;;
75645;SDS011;64237;52.438;13.240;2023-06-14T12:04:47;6.00;;;2.35;;
75645;SDS011;64237;52.438;13.240;2023-06-14T12:07:16;5.57;;;2.40;;
75645;SDS011;64237;52.438;13.240;2023-06-14T12:12:22;6.45;;;2.53;;
75645;SDS011;64237;52.438;13.240;2023-06-14T12:14:50;5.85;;;2.40;;
75645;SDS011;64237;52.438;13.240;2023-06-14T12:17:16;5.45;;;2.50;;
75645;SDS011;64237;52.438;13.240;2023-06-14T12:19:43;7.03;;;2.30;;
75645;SDS011;64237;52.438;13.240;2023-06-14T12:22:09;5.85;;;2.20;;
75645;SDS011;64237;52.438;13.240;2023-06-14T12:24:36;7.55;;;2.40;;
75645;SDS011;64237;52.438;13.240;2023-06-14T12:27:01;6.68;;;2.70;;
75645;SDS011;64237;52.438;13.240;2023-06-14T12:29:31;10.02;;;2.20;;
75645;SDS011;64237;52.438;13.240;2023-06-14T12:31:57;6.18;;;2.40;;
75645;SDS011;64237;52.438;13.240;2023-06-14T12:34:23;6.90;;;2.53;;
75645;SDS011;64237;52.438;13.240;2023-06-14T12:36:52;8.02;;;2.17;;
75645;SDS011;64237;52.438;13.240;2023-06-14T12:39:18;5.70;;;2.50;;
75645;SDS011;64237;52.438;13.240;2023-06-14T12:41:44;9.35;;;2.60;;
75645;SDS011;64237;52.438;13.240;2023-06-14T12:44:13;7.13;;;2.60;;
75645;SDS011;64237;52.438;13.240;2023-06-14T12:46:41;7.10;;;2.65;;
75645;SDS011;64237;52.438;13.240;2023-06-14T12:49:08;8.75;;;2.92;;
75645;SDS011;64237;52.438;13.240;2023-06-14T12:51:37;5.70;;;2.58;;
75645;SDS011;64237;52.438;13.240;2023-06-14T12:54:04;6.22;;;2.58;;
75645;SDS011;64237;52.438;13.240;2023-06-14T12:56:30;8.10;;;2.58;;
75645;SDS011;64237;52.438;13.240;2023-06-14T12:58:55;6.90;;;2.40;;
75645;SDS011;64237;52.438;13.240;2023-06-14T13:01:20;8.68;;;2.95;;
75645;SDS011;64237;52.438;13.240;2023-06-14T13:03:46;7.05;;;2.72;;
75645;SDS011;64237;52.438;13.240;2023-06-14T13:06:12;6.63;;;2.25;;
75645;SDS011;64237;52.438;13.240;2023-06-14T13:08:37;7.20;;;2.40;;
75645;SDS011;64237;52.438;13.240;2023-06-14T13:11:03;6.40;;;2.20;;
75645;SDS011;64237;52.438;13.240;2023-06-14T13:13:28;8.98;;;2.58;;
75645;SDS011;64237;52.438;13.240;2023-06-14T13:15:53;7.43;;;2.78;;
75645;SDS011;64237;52.438;13.240;2023-06-14T13:18:19;10.18;;;2.30;;
75645;SDS011;64237;52.438;13.240;2023-06-14T13:20:45;6.47;;;2.63;;
75645;SDS011;64237;52.438;13.240;2023-06-14T13:23:11;8.93;;;2.30;;
75645;SDS011;64237;52.438;13.240;2023-06-14T13:25:37;10.07;;;2.50;;
75645;SDS011;64237;52.438;13.240;2023-06-14T13:28:03;11.63;;;2.70;;
75645;SDS011;64237;52.438;13.240;2023-06-14T13:30:29;7.22;;;2.35;;
75645;SDS011;64237;52.438;13.240;2023-06-14T13:32:55;6.45;;;2.63;;
75645;SDS011;64237;52.438;13.240;2023-06-14T13:35:21;7.78;;;2.70;;
75645;SDS011;64237;52.438;13.240;2023-06-14T13:37:47;7.20;;;2.40;;
75645;SDS011;64237;52.438;13.240;2023-06-14T13:40:12;10.30;;;2.92;;
75645;SDS011;64237;52.438;13.240;2023-06-14T13:42:38;7.38;;;2.28;;
75645;SDS011;64237;52.438;13.240;2023-06-14T13:45:04;5.50;;;2.22;;
75645;SDS011;64237;52.438;13.240;2023-06-14T13:47:30;11.18;;;2.53;;
75645;SDS011;64237;52.438;13.240;2023-06-14T13:49:56;6.65;;;2.30;;
75645;SDS011;64237;52.438;13.240;2023-06-14T13:52:22;7.45;;;2.47;;
75645;SDS011;64237;52.438;13.240;2023-06-14T13:54:48;7.00;;;2.25;;
75645;SDS011;64237;52.438;13.240;2023-06-14T13:57:13;6.18;;;2.30;;
75645;SDS011;64237;52.438;13.240;2023-06-14T13:59:39;8.68;;;2.40;;
75645;SDS011;64237;52.438;13.240;2023-06-14T14:02:06;8.40;;;2.58;;
75645;SDS011;64237;52.438;13.240;2023-06-14T14:04:32;8.25;;;2.63;;
75645;SDS011;64237;52.438;13.240;2023-06-14T14:06:59;7.78;;;2.95;;
75645;SDS011;64237;52.438;13.240;2023-06-14T14:09:25;5.20;;;2.33;;
75645;SDS011;64237;52.438;13.240;2023-06-14T14:11:50;6.97;;;2.85;;
75645;SDS011;64237;52.438;13.240;2023-06-14T14:14:15;5.68;;;2.40;;
75645;SDS011;64237;52.438;13.240;2023-06-14T14:16:41;7.70;;;2.75;;
75645;SDS011;64237;52.438;13.240;2023-06-14T14:19:06;6.55;;;2.28;;
75645;SDS011;64237;52.438;13.240;2023-06-14T14:21:32;8.35;;;2.80;;
75645;SDS011;64237;52.438;13.240;2023-06-14T14:23:58;6.35;;;2.30;;
75645;SDS011;64237;52.438;13.240;2023-06-14T14:26:23;4.63;;;2.50;;
75645;SDS011;64237;52.438;13.240;2023-06-14T14:28:50;6.25;;;2.30;;
75645;SDS011;64237;52.438;13.240;2023-06-14T14:31:15;10.30;;;2.60;;
75645;SDS011;64237;52.438;13.240;2023-06-14T14:33:41;6.10;;;2.40;;
75645;SDS011;64237;52.438;13.240;2023-06-14T14:36:06;7.68;;;2.45;;
75645;SDS011;64237;52.438;13.240;2023-06-14T14:38:32;6.85;;;2.60;;
75645;SDS011;64237;52.438;13.240;2023-06-14T14:40:58;7.75;;;2.38;;
75645;SDS011;64237;52.438;13.240;2023-06-14T14:43:24;6.25;;;2.40;;
75645;SDS011;64237;52.438;13.240;2023-06-14T14:45:49;10.48;;;2.65;;
75645;SDS011;64237;52.438;13.240;2023-06-14T14:48:14;5.95;;;2.15;;
75645;SDS011;64237;52.438;13.240;2023-06-14T14:50:40;5.10;;;2.35;;
75645;SDS011;64237;52.438;13.240;2023-06-14T14:53:05;7.28;;;2.50;;
75645;SDS011;64237;52.438;13.240;2023-06-14T14:55:31;7.40;;;2.22;;